createdAt,value
2022-08-19T00:00:56.240Z,61.09
2022-08-19T00:05:58.953Z,58.63
2022-08-19T00:11:01.695Z,60.64
2022-08-19T00:16:06.909Z,62.37
2022-08-19T00:21:10.566Z,60.44
2022-08-19T00:26:13.448Z,59.30
2022-08-19T00:31:16.603Z,61.57
2022-08-19T00:36:19.627Z,62.41
2022-08-19T00:41:25.094Z,60.69
2022-08-19T00:46:29.445Z,59.13
2022-08-19T00:51:33.904Z,61.62
2022-08-19T00:56:37.857Z,60.99
2022-08-19T01:01:43.522Z,60.03
2022-08-19T01:06:46.292Z,60.68
2022-08-19T01:11:49.601Z,63.54
2022-08-19T01:16:55.562Z,62.03
2022-08-19T01:22:14.203Z,60.26
2022-08-19T01:27:18.737Z,59.62
2022-08-19T01:32:33.984Z,62.99
2022-08-19T01:37:48.102Z,61.71
2022-08-19T01:42:53.861Z,59.24
2022-08-19T01:48:01.482Z,61.78
2022-08-19T01:53:09.432Z,63.39
2022-08-19T01:58:25.826Z,60.85
2022-08-19T02:03:30.076Z,60.00
2022-08-19T02:08:35.792Z,60.20
2022-08-19T02:13:38.521Z,59.25
2022-08-19T02:18:41.234Z,60.82
2022-08-19T02:23:44.289Z,63.14
2022-08-19T02:28:47.014Z,61.11
2022-08-19T02:33:50.035Z,59.54
2022-08-19T02:38:54.718Z,62.19
2022-08-19T02:44:14.274Z,61.95
2022-08-19T02:49:22.172Z,60.19
2022-08-19T02:54:24.977Z,59.06
2022-08-19T02:59:31.475Z,63.02
2022-08-19T03:04:34.269Z,62.78
2022-08-19T03:09:40.674Z,60.57
2022-08-19T03:14:43.801Z,59.23
2022-08-19T03:19:46.503Z,63.15
2022-08-19T03:24:49.262Z,62.48
2022-08-19T03:29:52.576Z,61.29
2022-08-19T03:34:55.379Z,61.02
2022-08-19T03:39:58.098Z,61.06
2022-08-19T03:45:00.984Z,60.84
2022-08-19T03:50:04.056Z,60.42
2022-08-19T03:55:07.787Z,60.81
2022-08-19T04:00:13.536Z,61.10
2022-08-19T04:05:16.825Z,61.22
2022-08-19T04:10:19.660Z,61.15
2022-08-19T04:15:22.357Z,61.01
2022-08-19T04:20:25.077Z,60.75
2022-08-19T04:25:27.802Z,59.68
2022-08-19T04:30:30.488Z,59.00
2022-08-19T04:35:46.210Z,62.03
2022-08-19T04:41:09.112Z,61.47
2022-08-19T04:46:18.151Z,59.58
2022-08-19T04:51:37.913Z,61.11
2022-08-19T04:56:41.809Z,61.79
2022-08-19T05:01:44.656Z,59.31
2022-08-19T05:06:49.586Z,61.48
2022-08-19T05:11:54.670Z,62.00
2022-08-19T05:17:25.622Z,59.32
2022-08-19T05:22:38.411Z,59.39
2022-08-19T05:27:42.713Z,59.46
2022-08-19T05:32:45.840Z,59.36
2022-08-19T05:37:48.553Z,59.42
2022-08-19T05:42:57.700Z,59.22
2022-08-19T05:48:00.573Z,58.69
2022-08-19T05:53:03.781Z,58.74
2022-08-19T05:58:08.732Z,58.34
2022-08-19T06:03:13.439Z,57.24
2022-08-19T06:08:19.492Z,56.57
2022-08-19T06:13:24.331Z,56.42
2022-08-19T06:18:27.420Z,56.29
2022-08-19T06:23:30.527Z,55.16
2022-08-19T06:28:34.684Z,53.38
2022-08-19T06:33:38.460Z,51.56
2022-08-19T06:38:41.681Z,50.91
2022-08-19T06:43:45.034Z,49.30
2022-08-19T06:48:49.749Z,45.84
2022-08-19T06:53:55.680Z,44.69
2022-08-19T06:58:59.448Z,42.85
2022-08-19T07:04:03.492Z,42.76
2022-08-19T07:09:10.492Z,41.49
2022-08-19T07:14:19.126Z,40.18
2022-08-19T07:19:24.790Z,40.32
2022-08-19T07:24:28.515Z,37.91
2022-08-19T07:29:38.345Z,36.86
2022-08-19T07:34:41.386Z,37.08
2022-08-19T07:39:45.884Z,36.65
2022-08-19T07:44:50.421Z,36.96
2022-08-19T07:49:53.617Z,37.27
2022-08-19T07:54:56.422Z,37.22
2022-08-19T08:00:00.273Z,37.55
2022-08-19T08:05:22.435Z,37.02
2022-08-19T08:10:25.295Z,37.36
2022-08-19T08:15:28.334Z,35.59
2022-08-19T08:20:32.558Z,35.28
2022-08-19T08:25:37.385Z,34.32
2022-08-19T08:30:45.075Z,33.81
2022-08-19T08:35:48.421Z,34.18
2022-08-19T08:41:20.615Z,34.07
2022-08-19T08:46:31.488Z,32.91
2022-08-19T08:56:54.302Z,30.97
2022-08-19T09:01:57.131Z,31.35
2022-08-19T09:07:36.051Z,31.75
2022-08-19T09:12:59.936Z,32.42
2022-08-19T09:18:07.191Z,31.81
2022-08-19T09:23:11.897Z,31.37
2022-08-19T09:28:22.492Z,30.84
2022-08-19T09:33:30.614Z,30.60
2022-08-19T09:38:33.645Z,29.97
2022-08-19T09:43:44.176Z,29.66
2022-08-19T09:48:53.149Z,29.24
2022-08-19T09:54:01.281Z,29.79
2022-08-19T09:59:07.868Z,28.85
2022-08-19T10:04:20.174Z,27.88
2022-08-19T10:09:26.254Z,26.76
2022-08-19T10:14:38.121Z,26.88
2022-08-19T10:19:42.076Z,26.28
2022-08-19T10:24:58.650Z,26.56
2022-08-19T10:30:02.697Z,25.92
2022-08-19T10:35:09.492Z,25.84
2022-08-19T10:40:12.956Z,25.06
2022-08-19T10:45:15.645Z,25.02
2022-08-19T10:50:37.431Z,25.07
2022-08-19T10:55:59.274Z,25.62
2022-08-19T11:01:02.340Z,26.15
2022-08-19T11:06:08.653Z,25.89
2022-08-19T11:11:11.769Z,25.85
2022-08-19T11:16:23.996Z,26.18
2022-08-19T11:21:33.340Z,26.50
2022-08-19T11:26:37.094Z,25.76
2022-08-19T11:31:42.861Z,24.90
2022-08-19T11:36:49.182Z,23.95
2022-08-19T11:41:52.483Z,24.13
2022-08-19T11:46:55.823Z,24.64
2022-08-19T11:51:59.494Z,24.00
2022-08-19T11:57:04.761Z,24.97
2022-08-19T12:02:07.487Z,25.13
2022-08-19T12:07:10.258Z,26.30
2022-08-19T12:12:13.210Z,26.81
2022-08-19T12:17:16.362Z,27.54
2022-08-19T12:22:19.588Z,27.88
2022-08-19T12:27:39.933Z,28.22
2022-08-19T12:32:44.245Z,28.77
2022-08-19T12:37:56.917Z,28.81
2022-08-19T12:43:00.508Z,29.35
2022-08-19T12:48:33.584Z,29.95
2022-08-19T12:53:27.087Z,30.25
2022-08-19T12:58:30.834Z,29.19
2022-08-19T13:03:36.432Z,27.33
2022-08-19T13:08:42.907Z,26.22
2022-08-19T13:13:51.507Z,25.47
2022-08-19T13:18:56.939Z,25.97
2022-08-19T13:23:59.980Z,26.56
2022-08-19T13:29:38.062Z,26.28
2022-08-19T13:34:47.749Z,27.82
2022-08-19T13:39:50.615Z,28.22
2022-08-19T13:44:55.765Z,27.09
2022-08-19T13:49:58.468Z,26.93
2022-08-19T13:55:01.222Z,27.09
2022-08-19T14:00:05.496Z,28.17
2022-08-19T14:05:12.601Z,28.74
2022-08-19T14:10:16.127Z,29.83
2022-08-19T14:15:18.895Z,30.51
2022-08-19T14:20:22.470Z,29.78
2022-08-19T14:25:31.046Z,29.57
2022-08-19T14:30:35.906Z,30.28
2022-08-19T14:35:39.096Z,30.58
2022-08-19T14:40:43.146Z,30.83
2022-08-19T14:45:46.305Z,30.98
2022-08-19T14:50:49.623Z,31.16
2022-08-19T14:55:53.108Z,31.20
2022-08-19T15:00:55.994Z,30.84
2022-08-19T15:06:00.180Z,30.10
2022-08-19T15:11:03.875Z,29.03
2022-08-19T15:16:06.934Z,28.46
2022-08-19T15:21:27.151Z,27.80
2022-08-19T15:26:33.479Z,27.12
2022-08-19T15:31:38.264Z,26.97
2022-08-19T15:36:41.789Z,27.26
2022-08-19T15:41:45.286Z,28.64
2022-08-19T15:46:49.450Z,30.43
2022-08-19T15:51:54.382Z,32.22
2022-08-19T15:57:15.720Z,33.75
2022-08-19T16:02:40.386Z,34.67
2022-08-19T16:07:43.260Z,35.11
2022-08-19T16:12:46.105Z,35.41
2022-08-19T16:17:55.493Z,35.72
2022-08-19T16:23:00.546Z,36.08
2022-08-19T16:28:06.630Z,36.64
2022-08-19T16:33:11.082Z,36.95
2022-08-19T16:38:13.783Z,37.26
2022-08-19T16:43:16.473Z,37.68
2022-08-19T16:48:20.594Z,38.30
2022-08-19T16:53:29.166Z,38.88
2022-08-19T16:58:34.449Z,39.33
2022-08-19T17:03:39.993Z,39.55
2022-08-19T17:08:48.504Z,39.72
2022-08-19T17:13:52.276Z,40.05
2022-08-19T17:18:57.541Z,40.46
2022-08-19T17:24:02.284Z,41.03
2022-08-19T17:29:06.054Z,41.20
2022-08-19T17:34:09.379Z,41.81
2022-08-19T17:39:12.173Z,42.18
2022-08-19T17:44:14.914Z,42.70
2022-08-19T17:49:17.991Z,43.20
2022-08-19T17:54:20.800Z,43.75
2022-08-19T17:59:23.610Z,44.15
2022-08-19T18:04:31.357Z,44.76
2022-08-19T18:09:42.283Z,45.14
2022-08-19T18:14:46.565Z,45.42
2022-08-19T18:19:49.492Z,45.87
2022-08-19T18:24:52.448Z,46.12
2022-08-19T18:29:59.860Z,46.25
2022-08-19T18:35:06.596Z,46.58
2022-08-19T18:40:31.698Z,46.97
2022-08-19T18:46:07.223Z,47.20
2022-08-19T18:51:11.383Z,47.40
2022-08-19T18:56:18.104Z,47.54
2022-08-19T19:01:50.693Z,47.77
2022-08-19T19:06:53.889Z,48.01
2022-08-19T19:12:00.530Z,48.30
2022-08-19T19:17:06.973Z,48.58
2022-08-19T19:22:13.233Z,48.94
2022-08-19T19:27:20.457Z,49.22
2022-08-19T19:32:28.529Z,49.32
2022-08-19T19:37:31.683Z,49.46
2022-08-19T19:42:35.201Z,49.59
2022-08-19T19:47:38.120Z,49.63
2022-08-19T19:52:41.190Z,49.66
2022-08-19T19:57:46.585Z,49.64
2022-08-19T20:02:50.917Z,49.66
2022-08-19T20:08:14.263Z,49.60
2022-08-19T20:13:17.165Z,49.45
2022-08-19T20:18:19.925Z,49.45
2022-08-19T20:23:23.637Z,49.43
2022-08-19T20:28:28.458Z,49.25
2022-08-19T20:33:31.500Z,49.19
2022-08-19T20:38:35.171Z,49.06
2022-08-19T20:43:38.890Z,48.94
2022-08-19T20:48:42.971Z,48.81
2022-08-19T20:53:45.793Z,48.73
2022-08-19T20:58:53.518Z,48.68
2022-08-19T21:03:58.336Z,48.60
2022-08-19T21:09:01.318Z,48.54
2022-08-19T21:14:04.096Z,48.54
2022-08-19T21:19:06.995Z,48.63
2022-08-19T21:24:09.935Z,48.76
2022-08-19T21:29:12.664Z,48.81
2022-08-19T21:34:15.621Z,48.82
2022-08-19T21:39:18.460Z,48.83
2022-08-19T21:44:21.298Z,48.87
2022-08-19T21:49:24.101Z,48.88
2022-08-19T21:54:26.822Z,49.00
2022-08-19T21:59:43.537Z,49.14
2022-08-19T22:04:47.167Z,49.32
2022-08-19T22:09:51.726Z,49.54
2022-08-19T22:14:55.692Z,49.76
2022-08-19T22:19:58.634Z,50.04
2022-08-19T22:25:31.611Z,50.35
2022-08-19T22:30:38.235Z,50.54
2022-08-19T22:35:42.527Z,50.96
2022-08-19T22:40:48.538Z,51.20
2022-08-19T22:45:53.716Z,51.82
2022-08-19T22:51:15.882Z,52.21
2022-08-19T22:56:20.250Z,52.50
2022-08-19T23:01:29.661Z,52.42
2022-08-19T23:06:36.374Z,52.91
2022-08-19T23:11:42.018Z,54.44
2022-08-19T23:16:50.761Z,60.77
2022-08-19T23:21:54.144Z,62.37
2022-08-19T23:27:15.205Z,61.30
2022-08-19T23:32:19.559Z,60.73
2022-08-19T23:37:22.274Z,64.02
2022-08-19T23:42:27.452Z,61.54
2022-08-19T23:47:30.205Z,62.22
2022-08-19T23:52:35.594Z,62.33
2022-08-19T23:57:38.485Z,63.24
